Time;durP1;ratioP1;P1;durP2;ratioP2;P2;SDS_P1;SDS_P2;PMS_P1;PMS_P2;Temp;Humidity;BMP_temperature;BMP_pressure;BME280_temperature;BME280_humidity;BME280_pressure;Samples;Min_cycle;Max_cycle;Signal;HPM_P1;HPM_P2
2021/01/12 00:00:20;;;;;;;45.25;16.75;;;;;;;11.96;68.53;100651.16;4946747;28;20026;-90
2021/01/12 00:02:45;;;;;;;35.72;17.35;;;;;;;11.98;68.73;100659.94;4977831;28;20033;-91
2021/01/12 00:05:12;;;;;;;51.03;15.07;;;;;;;11.84;68.64;100653.63;4965178;28;20680;-90
2021/01/12 00:07:38;;;;;;;38.47;18.67;;;;;;;11.78;68.75;100622.59;4974957;28;20044;-87
2021/01/12 00:10:05;;;;;;;38.80;15.50;;;;;;;11.77;69.17;100640.00;4981054;28;20035;-90
2021/01/12 00:12:30;;;;;;;51.70;19.35;;;;;;;12.06;68.47;100645.25;4965499;28;20049;-90
2021/01/12 00:14:56;;;;;;;33.65;16.50;;;;;;;11.70;68.92;100606.47;4948216;28;20408;-91
2021/01/12 00:17:21;;;;;;;42.70;15.48;;;;;;;12.08;68.06;100618.63;4960988;28;20033;-92
2021/01/12 00:19:47;;;;;;;40.03;16.50;;;;;;;11.75;68.75;100605.84;4962118;28;20034;-92
2021/01/12 00:22:15;;;;;;;34.75;12.98;;;;;;;11.96;68.49;100599.38;4968718;28;20706;-91
2021/01/12 00:24:46;;;;;;;46.05;18.10;;;;;;;11.82;68.92;100612.97;4967027;28;20056;-93
2021/01/12 00:27:16;;;;;;;31.65;13.60;;;;;;;11.64;68.93;100593.69;4981826;28;20455;-91
2021/01/12 00:29:42;;;;;;;39.10;16.10;;;;;;;11.95;68.70;100600.41;4979647;28;20789;-92
2021/01/12 00:32:07;;;;;;;41.20;14.63;;;;;;;12.02;68.35;100582.16;4982798;28;20153;-91
2021/01/12 00:34:34;;;;;;;32.15;16.40;;;;;;;11.83;68.97;100587.41;4972953;28;20053;-89
2021/01/12 00:37:00;;;;;;;41.97;15.98;;;;;;;11.74;69.69;100568.75;4979806;28;20054;-91
2021/01/12 00:39:25;;;;;;;30.85;14.90;;;;;;;11.60;69.86;100574.22;4972474;28;20113;-90
2021/01/12 00:41:55;;;;;;;39.25;14.20;;;;;;;11.65;69.94;100571.69;4970874;28;20042;-90
2021/01/12 00:44:25;;;;;;;30.50;12.85;;;;;;;11.80;69.81;100576.94;4977304;28;20038;-90
2021/01/12 00:46:51;;;;;;;33.92;14.05;;;;;;;11.87;69.62;100567.91;4982569;28;20014;-91
2021/01/12 00:49:18;;;;;;;43.50;12.77;;;;;;;11.92;69.35;100579.00;4979678;28;20033;-90
2021/01/12 00:51:44;;;;;;;30.25;10.88;;;;;;;12.05;68.59;100561.81;4964139;28;20033;-88
2021/01/12 00:54:12;;;;;;;33.15;9.40;;;;;;;11.78;69.42;100540.84;4977472;28;20046;-90
2021/01/12 00:56:38;;;;;;;37.00;11.82;;;;;;;11.81;69.46;100551.34;4982021;28;20023;-89
2021/01/12 00:59:04;;;;;;;22.00;10.63;;;;;;;11.92;69.15;100557.19;4970926;28;20061;-88
2021/01/12 01:01:30;;;;;;;28.70;13.70;;;;;;;12.09;68.54;100546.72;4981005;28;20038;-92
2021/01/12 01:03:56;;;;;;;28.83;10.48;;;;;;;11.77;69.54;100554.69;4953415;28;20122;-90
2021/01/12 01:06:22;;;;;;;24.27;9.32;;;;;;;12.02;68.44;100532.25;4993071;28;20052;-89
2021/01/12 01:08:48;;;;;;;31.23;12.30;;;;;;;11.95;68.98;100530.38;4977966;28;20038;-88
2021/01/12 01:11:14;;;;;;;30.00;12.55;;;;;;;11.89;69.42;100539.38;4951631;28;20030;-88
2021/01/12 01:13:40;;;;;;;26.70;10.75;;;;;;;11.82;69.32;100528.50;4980887;28;20054;-89
2021/01/12 01:16:05;;;;;;;22.60;10.98;;;;;;;11.86;69.51;100537.06;4959466;28;20117;-91
2021/01/12 01:18:32;;;;;;;31.50;10.15;;;;;;;11.86;69.54;100533.53;4980208;28;20464;-88
2021/01/12 01:20:57;;;;;;;34.42;8.93;;;;;;;12.01;69.05;100515.06;4959681;28;20030;-90
2021/01/12 01:23:22;;;;;;;29.83;7.13;;;;;;;11.83;69.26;100510.25;4973326;28;20047;-89
2021/01/12 01:25:49;;;;;;;25.65;7.55;;;;;;;11.86;69.23;100498.09;4946404;28;20037;-91
2021/01/12 01:28:15;;;;;;;29.25;9.85;;;;;;;11.82;69.22;100509.44;4963851;28;20480;-90
2021/01/12 01:30:40;;;;;;;40.30;9.90;;;;;;;12.00;68.64;100510.66;4959447;28;20038;-89
2021/01/12 01:33:06;;;;;;;26.00;7.55;;;;;;;11.77;69.58;100492.88;4958039;28;20041;-88
2021/01/12 01:35:32;;;;;;;39.90;8.38;;;;;;;11.99;68.72;100490.75;4976888;28;20031;-87
2021/01/12 01:37:58;;;;;;;28.63;6.95;;;;;;;12.14;68.12;100508.72;4978647;28;20241;-90
2021/01/12 01:40:24;;;;;;;35.33;8.02;;;;;;;11.82;69.56;100512.16;4980496;28;20022;-89
2021/01/12 01:42:50;;;;;;;29.83;6.30;;;;;;;11.83;69.53;100505.66;4979884;28;20023;-90
2021/01/12 01:45:16;;;;;;;29.63;6.22;;;;;;;11.89;69.25;100495.78;4962020;28;20045;-89
2021/01/12 01:47:45;;;;;;;38.58;7.00;;;;;;;12.03;69.08;100512.97;4974484;28;20057;-89
2021/01/12 01:50:16;;;;;;;25.25;6.57;;;;;;;11.98;69.37;100512.78;4963754;28;20061;-89
2021/01/12 01:52:53;;;;;;;30.15;7.68;;;;;;;12.08;69.06;100512.31;4976822;28;20058;-85
2021/01/12 01:55:20;;;;;;;25.90;8.73;;;;;;;12.11;69.02;100507.28;4973077;28;20515;-88
2021/01/12 01:57:45;;;;;;;24.25;7.18;;;;;;;12.09;68.77;100486.75;4974347;28;20038;-89
2021/01/12 02:00:12;;;;;;;32.53;8.73;;;;;;;12.03;69.58;100504.78;4980908;28;20040;-86
2021/01/12 02:03:14;;;;;;;26.75;7.78;;;;;;;12.10;68.96;100483.81;4972684;28;20042;-88
2021/01/12 02:05:41;;;;;;;34.90;11.52;;;;;;;11.89;69.97;100500.41;4977912;28;20484;-88
2021/01/12 02:08:17;;;;;;;25.90;10.05;;;;;;;11.99;69.66;100488.03;4971639;28;20112;-89
2021/01/12 02:10:46;;;;;;;22.77;8.32;;;;;;;11.95;69.92;100499.56;4977172;28;20452;-89
2021/01/12 02:13:22;;;;;;;27.85;8.32;;;;;;;11.76;70.38;100477.59;4978287;28;20109;-90
2021/01/12 02:15:48;;;;;;;26.00;7.60;;;;;;;12.08;69.51;100485.91;4973983;28;20073;-86
2021/01/12 02:18:14;;;;;;;32.17;6.57;;;;;;;12.23;69.30;100492.97;4966107;28;20035;-90
2021/01/12 02:20:42;;;;;;;24.73;8.02;;;;;;;12.31;68.77;100485.41;4978473;28;20038;-89
2021/01/12 02:23:14;;;;;;;27.50;7.47;;;;;;;11.96;70.03;100484.91;4977953;28;20129;-93
2021/01/12 02:25:41;;;;;;;29.00;7.00;;;;;;;11.97;69.69;100467.47;4974117;28;20719;-93
2021/01/12 02:28:10;;;;;;;41.78;9.30;;;;;;;11.98;69.44;100483.63;4947008;28;20074;-92
2021/01/12 02:30:37;;;;;;;30.80;6.60;;;;;;;11.96;69.84;100482.19;4967470;28;20033;-88
2021/01/12 02:33:06;;;;;;;25.02;7.88;;;;;;;11.90;70.07;100483.84;4960802;28;20038;-90
2021/01/12 02:35:34;;;;;;;24.58;6.55;;;;;;;12.11;69.13;100469.13;4956587;28;20813;-90
2021/01/12 02:38:02;;;;;;;27.40;6.85;;;;;;;12.02;69.46;100466.84;4978425;28;20041;-90
2021/01/12 02:40:27;;;;;;;21.90;6.68;;;;;;;12.09;69.17;100459.47;4973809;28;20030;-91
2021/01/12 02:42:52;;;;;;;26.75;8.85;;;;;;;12.22;68.62;100462.16;4976882;28;20112;-90
2021/01/12 02:45:18;;;;;;;28.08;8.40;;;;;;;12.11;69.20;100474.59;4971191;28;20122;-90
2021/01/12 02:47:44;;;;;;;14.57;5.70;;;;;;;12.12;68.85;100468.06;4972399;28;20042;-88
2021/01/12 02:50:12;;;;;;;23.10;8.52;;;;;;;12.30;68.43;100450.16;4964250;28;20026;-86
2021/01/12 02:52:39;;;;;;;29.33;7.60;;;;;;;11.98;69.33;100459.09;4955553;28;20081;-87
2021/01/12 02:55:07;;;;;;;31.75;7.95;;;;;;;12.08;69.17;100463.25;4956345;28;20049;-89
2021/01/12 02:57:33;;;;;;;22.20;10.18;;;;;;;12.18;68.92;100469.91;4970931;28;20070;-89
2021/01/12 02:59:58;;;;;;;31.13;9.82;;;;;;;11.98;69.45;100436.47;4980007;28;20467;-89
2021/01/12 03:02:23;;;;;;;28.50;8.95;;;;;;;12.12;68.90;100446.25;4958725;28;20034;-89
2021/01/12 03:04:49;;;;;;;25.08;7.53;;;;;;;12.05;69.21;100444.59;4946312;28;20057;-89
2021/01/12 03:07:14;;;;;;;16.80;5.53;;;;;;;12.21;68.91;100460.47;4955437;28;20433;-88
2021/01/12 03:09:40;;;;;;;33.78;9.82;;;;;;;12.00;69.55;100448.84;4956337;28;20062;-90
2021/01/12 03:12:05;;;;;;;20.13;4.18;;;;;;;12.02;69.20;100434.13;4934506;28;20026;-89
2021/01/12 03:14:31;;;;;;;18.48;5.65;;;;;;;12.07;68.90;100437.91;4972394;28;20042;-87
2021/01/12 03:16:56;;;;;;;25.00;6.43;;;;;;;12.21;68.45;100433.22;4974550;28;20109;-88
2021/01/12 03:19:22;;;;;;;21.33;4.30;;;;;;;12.23;68.22;100422.91;4974883;28;20041;-89
2021/01/12 03:21:47;;;;;;;24.90;5.57;;;;;;;12.40;68.06;100441.50;4959803;28;20027;-89
2021/01/12 03:24:13;;;;;;;22.70;6.53;;;;;;;12.20;67.91;100417.06;4954212;28;20870;-88
2021/01/12 03:26:38;;;;;;;20.73;5.75;;;;;;;12.28;68.10;100425.00;4977731;28;20041;-90
2021/01/12 03:29:04;;;;;;;19.90;5.95;;;;;;;12.30;68.31;100415.56;4939613;28;20031;-89
2021/01/12 03:31:41;;;;;;;19.95;4.05;;;;;;;12.11;69.01;100425.50;4971348;28;20050;-88
2021/01/12 03:34:07;;;;;;;17.70;3.78;;;;;;;12.18;68.76;100418.13;4970139;28;20053;-89
2021/01/12 03:36:32;;;;;;;20.67;5.20;;;;;;;12.31;68.02;100410.91;4960788;28;20472;-91
2021/01/12 03:38:58;;;;;;;18.75;5.88;;;;;;;12.35;67.94;100406.72;4934215;28;20043;-91
2021/01/12 03:41:23;;;;;;;15.95;3.63;;;;;;;12.20;68.54;100417.91;4957005;28;20033;-88
2021/01/12 03:43:49;;;;;;;13.20;3.88;;;;;;;12.17;68.55;100404.72;4954860;28;20034;-91
2021/01/12 03:46:14;;;;;;;13.38;4.50;;;;;;;12.25;68.30;100401.75;4963698;28;20033;-89
2021/01/12 03:48:40;;;;;;;12.85;3.00;;;;;;;12.28;68.24;100405.91;4966399;28;20034;-87
2021/01/12 03:51:05;;;;;;;13.32;3.55;;;;;;;12.30;68.11;100385.56;4945650;28;20041;-86
2021/01/12 03:53:30;;;;;;;13.95;4.63;;;;;;;12.44;67.49;100394.50;4981154;28;20087;-91
2021/01/12 03:55:56;;;;;;;15.77;4.70;;;;;;;12.02;69.00;100396.84;4960116;28;20130;-88
2021/01/12 03:58:21;;;;;;;13.90;3.08;;;;;;;12.12;68.60;100396.34;4947434;28;20393;-88
2021/01/12 04:00:47;;;;;;;10.75;2.65;;;;;;;12.22;67.85;100374.91;4953432;28;20031;-88
2021/01/12 04:03:12;;;;;;;13.15;3.00;;;;;;;12.14;68.39;100377.88;4978101;28;20497;-91
2021/01/12 04:05:39;;;;;;;13.40;4.05;;;;;;;12.21;68.19;100386.03;4949247;28;20042;-90
2021/01/12 04:08:07;;;;;;;15.98;3.67;;;;;;;12.16;67.90;100362.16;4975459;28;20030;-91
2021/01/12 04:10:33;;;;;;;15.77;3.35;;;;;;;12.23;67.88;100371.13;4984307;28;20053;-92
2021/01/12 04:13:02;;;;;;;13.80;4.78;;;;;;;12.36;67.57;100378.41;4968110;28;20034;-92
2021/01/12 04:15:30;;;;;;;12.70;3.78;;;;;;;12.34;67.50;100362.25;4986549;28;20030;-90
2021/01/12 04:17:55;;;;;;;10.57;3.28;;;;;;;12.32;67.81;100377.97;4960854;28;20041;-90
2021/01/12 04:20:21;;;;;;;13.35;4.65;;;;;;;12.31;67.87;100372.75;4965619;28;20030;-89
2021/01/12 04:22:46;;;;;;;13.73;3.58;;;;;;;12.25;67.75;100377.22;4977642;28;20034;-92
2021/01/12 04:25:12;;;;;;;13.60;5.10;;;;;;;12.22;67.88;100368.63;4949376;28;20029;-93
2021/01/12 04:27:37;;;;;;;12.25;4.78;;;;;;;12.21;67.54;100370.50;4972117;28;20031;-91
2021/01/12 04:30:04;;;;;;;17.30;4.47;;;;;;;12.31;67.41;100372.75;4985361;28;20030;-93
2021/01/12 04:32:30;;;;;;;16.50;5.20;;;;;;;12.31;67.60;100370.03;4980368;28;20018;-89
2021/01/12 04:34:55;;;;;;;10.80;3.28;;;;;;;12.25;67.16;100347.22;4964712;28;20129;-95
2021/01/12 04:37:21;;;;;;;18.17;5.25;;;;;;;12.18;68.00;100371.78;4987755;28;20113;-91
2021/01/12 04:39:46;;;;;;;11.70;5.15;;;;;;;12.14;67.86;100359.66;4980847;28;20038;-92
2021/01/12 04:42:12;;;;;;;17.63;7.70;;;;;;;12.32;67.49;100371.69;4952396;28;20118;-93
2021/01/12 04:44:37;;;;;;;19.88;8.13;;;;;;;12.11;67.88;100368.28;4949500;28;20034;-93
2021/01/12 04:47:06;;;;;;;15.05;5.65;;;;;;;12.07;68.15;100364.31;4970670;28;20034;-89
2021/01/12 04:49:32;;;;;;;23.25;5.25;;;;;;;12.10;67.62;100354.84;4966602;28;20024;-91
2021/01/12 04:51:57;;;;;;;12.32;4.63;;;;;;;12.09;67.95;100358.63;4982629;28;20038;-87
2021/01/12 04:54:32;;;;;;;12.30;3.83;;;;;;;12.24;67.62;100369.25;4975370;28;20110;-91
2021/01/12 04:56:57;;;;;;;17.48;5.95;;;;;;;11.93;68.46;100371.72;4976582;28;20148;-93
2021/01/12 04:59:30;;;;;;;19.20;3.63;;;;;;;12.06;68.26;100357.16;4956974;28;20041;-88
2021/01/12 05:01:56;;;;;;;16.05;4.78;;;;;;;12.09;67.91;100370.34;4972237;28;20033;-91
2021/01/12 05:04:22;;;;;;;19.30;4.72;;;;;;;12.12;67.61;100350.00;4979857;28;20030;-91
2021/01/12 05:06:48;;;;;;;15.95;4.10;;;;;;;12.22;67.52;100365.88;4978809;28;20033;-91
2021/01/12 05:09:19;;;;;;;17.05;5.25;;;;;;;12.07;67.80;100375.19;4963114;28;20046;-91
2021/01/12 05:11:44;;;;;;;;;;;;;;;12.06;67.94;100376.25;4978357;28;20037;-92
2021/01/12 05:14:12;;;;;;;9.15;3.05;;;;;;;11.99;68.05;100348.22;4978917;28;19937;-88
2021/01/12 05:16:54;;;;;;;19.25;4.93;;;;;;;12.03;67.94;100370.41;4959763;28;20034;-87
2021/01/12 05:19:26;;;;;;;24.23;5.95;;;;;;;11.97;68.14;100367.50;4982354;28;20073;-90
2021/01/12 05:21:54;;;;;;;16.55;4.43;;;;;;;12.10;67.38;100350.22;4970141;28;20034;-89
2021/01/12 05:24:21;;;;;;;17.70;4.22;;;;;;;12.08;67.56;100355.06;4979911;28;20050;-88
2021/01/12 05:26:49;;;;;;;12.68;3.33;;;;;;;12.02;67.73;100374.16;4959349;28;20900;-90
2021/01/12 05:29:15;;;;;;;12.25;2.92;;;;;;;11.88;67.94;100357.03;4960378;28;20034;-90
2021/01/12 05:31:45;;;;;;;16.45;4.78;;;;;;;11.90;68.25;100360.38;4976938;28;20041;-90
2021/01/12 05:34:11;;;;;;;14.57;5.32;;;;;;;12.09;67.75;100361.34;4998348;28;20042;-91
2021/01/12 05:36:49;;;;;;;15.00;5.15;;;;;;;11.94;67.78;100353.47;4996544;28;20039;-91
2021/01/12 05:39:20;;;;;;;12.98;4.25;;;;;;;11.89;68.36;100361.44;4974402;28;20050;-88
2021/01/12 05:41:47;;;;;;;14.25;4.38;;;;;;;11.73;68.42;100351.88;4997374;28;20500;-90
2021/01/12 05:44:18;;;;;;;18.60;5.43;;;;;;;11.79;68.21;100346.38;4975061;28;20034;-92
2021/01/12 05:46:44;;;;;;;16.40;4.78;;;;;;;11.96;67.56;100343.19;4976473;28;20034;-89
2021/01/12 05:49:11;;;;;;;16.83;4.53;;;;;;;12.08;67.31;100365.97;4978803;28;20131;-92
2021/01/12 05:51:45;;;;;;;13.85;3.50;;;;;;;12.17;67.44;100372.84;4981084;28;20433;-93
2021/01/12 05:54:25;;;;;;;23.63;7.30;;;;;;;11.88;67.71;100349.69;4958959;28;20022;-88
2021/01/12 05:57:02;;;;;;;20.58;5.50;;;;;;;11.97;67.65;100356.59;4993433;28;20026;-91
2021/01/12 05:59:33;;;;;;;16.70;5.85;;;;;;;12.03;67.33;100371.22;4968301;28;20028;-90
2021/01/12 06:02:02;;;;;;;22.33;7.70;;;;;;;12.08;67.60;100378.75;4995920;28;20052;-92
2021/01/12 06:04:28;;;;;;;19.88;7.45;;;;;;;11.93;67.64;100374.44;4979574;28;20038;-90
2021/01/12 06:06:55;;;;;;;22.25;5.63;;;;;;;11.75;67.93;100377.00;4979278;28;20026;-92
2021/01/12 06:09:22;;;;;;;10.85;5.60;;;;;;;11.44;68.12;100379.38;4979386;28;20081;-91
2021/01/12 06:11:50;;;;;;;8.15;3.53;;;;;;;11.56;67.61;100403.25;4979153;28;20057;-90
2021/01/12 06:14:19;;;;;;;11.75;4.50;;;;;;;11.62;66.45;100388.78;4992474;28;20077;-91
2021/01/12 06:16:46;;;;;;;5.10;3.80;;;;;;;11.63;66.70;100407.63;4973940;28;20030;-92
2021/01/12 06:19:14;;;;;;;9.68;5.35;;;;;;;11.18;67.05;100396.63;4972763;28;20026;-91
2021/01/12 06:21:55;;;;;;;8.15;3.15;;;;;;;11.54;66.53;100421.69;4970620;28;20026;-92
2021/01/12 06:24:35;;;;;;;9.32;2.33;;;;;;;11.56;66.26;100430.50;4979036;28;20588;-89
2021/01/12 06:27:02;;;;;;;7.85;3.25;;;;;;;11.40;66.19;100437.22;4971929;28;20134;-89
2021/01/12 06:29:30;;;;;;;7.75;3.60;;;;;;;11.30;66.49;100440.38;4959772;28;20145;-89
2021/01/12 06:31:57;;;;;;;7.03;4.07;;;;;;;11.08;66.50;100447.94;4958078;28;20038;-89
2021/01/12 06:34:23;;;;;;;4.35;2.65;;;;;;;10.91;67.17;100447.50;4982284;28;20041;-89
2021/01/12 06:36:54;;;;;;;9.48;4.43;;;;;;;10.97;67.16;100457.56;4967317;28;20125;-92
2021/01/12 06:39:23;;;;;;;5.75;2.80;;;;;;;11.00;67.07;100467.16;4980690;28;20053;-94
2021/01/12 06:41:50;;;;;;;8.43;2.78;;;;;;;10.83;67.75;100469.47;4973330;28;20065;-92
2021/01/12 06:44:25;;;;;;;6.40;2.65;;;;;;;10.48;67.86;100466.91;4996782;28;20074;-90
2021/01/12 06:46:52;;;;;;;7.20;3.05;;;;;;;10.56;67.32;100475.69;4971034;28;20047;-90
2021/01/12 06:49:20;;;;;;;4.60;2.50;;;;;;;10.93;66.45;100484.31;4972291;28;20030;-92
2021/01/12 06:51:54;;;;;;;5.75;2.13;;;;;;;10.64;66.38;100462.94;4960256;28;20042;-90
2021/01/12 06:54:20;;;;;;;8.50;2.25;;;;;;;10.79;66.41;100484.53;4973755;28;20817;-89
2021/01/12 06:56:45;;;;;;;8.18;3.55;;;;;;;10.67;66.28;100481.56;4975326;28;20041;-90
2021/01/12 06:59:14;;;;;;;7.20;2.20;;;;;;;10.81;66.00;100505.03;4941889;28;20038;-91
2021/01/12 07:01:40;;;;;;;8.68;2.08;;;;;;;10.47;66.47;100495.97;4958631;28;20034;-90
2021/01/12 07:04:05;;;;;;;9.57;3.05;;;;;;;10.52;66.34;100519.84;4959402;28;20031;-90
2021/01/12 07:06:33;;;;;;;8.10;3.17;;;;;;;10.54;66.14;100512.31;4963721;28;20038;-90
2021/01/12 07:08:59;;;;;;;5.65;3.58;;;;;;;10.50;66.37;100533.63;4972595;28;20030;-88
2021/01/12 07:11:25;;;;;;;11.80;2.88;;;;;;;10.59;65.77;100531.56;4973439;28;20119;-92
2021/01/12 07:13:51;;;;;;;12.35;2.53;;;;;;;10.60;65.82;100544.13;4976432;28;20024;-90
2021/01/12 07:16:17;;;;;;;13.23;3.10;;;;;;;10.10;66.33;100529.84;4946538;28;20081;-91
2021/01/12 07:18:44;;;;;;;9.68;2.35;;;;;;;10.17;66.05;100512.53;4995510;28;20113;-90
2021/01/12 07:21:14;;;;;;;5.10;2.17;;;;;;;10.30;65.24;100530.81;4970751;28;20033;-89
2021/01/12 07:23:42;;;;;;;7.53;2.53;;;;;;;10.36;64.88;100540.03;4942639;28;20401;-87
2021/01/12 07:26:09;;;;;;;6.90;2.65;;;;;;;10.03;65.65;100537.97;4974456;28;20022;-92
2021/01/12 07:28:44;;;;;;;13.43;2.88;;;;;;;10.35;64.47;100552.81;4962285;28;20041;-89
2021/01/12 07:31:09;;;;;;;10.95;7.50;;;;;;;10.25;64.51;100535.16;4963582;28;20049;-89
2021/01/12 07:33:35;;;;;;;14.10;5.57;;;;;;;10.35;64.23;100558.25;4956043;28;20043;-89
2021/01/12 07:36:00;;;;;;;13.95;7.00;;;;;;;10.26;64.41;100558.59;4931659;28;20051;-90
2021/01/12 07:38:30;;;;;;;74.43;43.95;;;;;;;10.25;64.27;100552.28;4956769;28;20034;-90
2021/01/12 07:41:01;;;;;;;44.75;30.98;;;;;;;10.42;64.23;100571.84;4958649;28;20023;-89
2021/01/12 07:43:27;;;;;;;22.60;12.25;;;;;;;10.39;64.16;100575.84;4969671;28;20034;-86
2021/01/12 07:45:54;;;;;;;8.95;4.90;;;;;;;10.42;64.20;100576.47;4967219;28;20038;-88
2021/01/12 07:48:20;;;;;;;12.00;4.88;;;;;;;10.34;63.88;100589.16;4968016;28;20050;-86
2021/01/12 07:50:48;;;;;;;17.85;10.60;;;;;;;10.02;64.33;100590.63;4951988;28;20490;-87
2021/01/12 07:53:14;;;;;;;47.10;22.55;;;;;;;10.07;64.48;100606.31;4968398;28;20112;-87
2021/01/12 07:55:40;;;;;;;17.13;8.48;;;;;;;10.11;63.98;100594.88;4967313;28;20026;-87
2021/01/12 07:58:07;;;;;;;18.95;8.60;;;;;;;10.26;63.97;100616.50;4966541;28;20784;-89
2021/01/12 08:00:32;;;;;;;14.05;5.38;;;;;;;10.15;63.94;100606.19;4952226;28;20109;-87
2021/01/12 08:02:59;;;;;;;16.98;4.93;;;;;;;10.31;63.90;100622.16;4947932;28;20294;-88
2021/01/12 08:05:26;;;;;;;7.55;6.25;;;;;;;10.43;63.55;100625.19;4967967;28;20042;-88
2021/01/12 08:08:09;;;;;;;16.48;4.40;;;;;;;10.47;63.57;100625.63;4959829;28;20206;-89
2021/01/12 08:10:37;;;;;;;9.48;4.35;;;;;;;10.50;63.36;100628.78;4970189;28;20481;-87
2021/01/12 08:13:09;;;;;;;14.80;4.50;;;;;;;10.33;63.75;100625.56;4971311;28;20034;-87
2021/01/12 08:15:36;;;;;;;14.52;6.70;;;;;;;10.23;64.41;100657.66;4967786;28;20504;-88
2021/01/12 08:18:09;;;;;;;15.73;6.97;;;;;;;9.91;65.53;100665.34;4968108;28;20027;-89
2021/01/12 08:20:36;;;;;;;9.45;3.80;;;;;;;10.07;64.97;100661.53;4971346;28;20046;-88
2021/01/12 08:23:01;;;;;;;11.75;4.00;;;;;;;10.16;64.60;100668.50;4970264;28;20046;-89
2021/01/12 08:25:27;;;;;;;6.90;4.40;;;;;;;10.17;64.41;100663.88;4951789;28;20043;-89
2021/01/12 08:27:55;;;;;;;12.95;6.80;;;;;;;10.20;63.84;100641.75;4966857;28;20114;-90
2021/01/12 08:30:22;;;;;;;10.27;5.22;;;;;;;10.29;63.63;100673.16;4974445;28;20526;-87
2021/01/12 08:33:06;;;;;;;11.35;6.20;;;;;;;10.21;63.47;100667.91;4953237;28;20075;-90
2021/01/12 08:35:37;;;;;;;10.77;4.22;;;;;;;10.16;63.60;100673.06;4972169;28;20042;-88
2021/01/12 08:38:06;;;;;;;10.70;4.10;;;;;;;10.47;63.36;100674.56;4972274;28;20037;-91
2021/01/12 08:40:33;;;;;;;10.57;3.80;;;;;;;10.48;63.29;100689.84;4968929;28;20035;-90
2021/01/12 08:43:01;;;;;;;11.10;4.53;;;;;;;10.43;63.55;100698.59;4970836;28;20412;-87
2021/01/12 08:45:32;;;;;;;11.80;6.45;;;;;;;10.08;63.93;100703.94;4971280;28;20034;-88
2021/01/12 08:48:18;;;;;;;13.00;4.32;;;;;;;9.49;64.22;100721.38;4954136;28;20481;-88
2021/01/12 08:50:44;;;;;;;7.00;3.25;;;;;;;9.76;63.05;100708.03;4970098;28;20130;-85
2021/01/12 08:53:15;;;;;;;8.18;3.50;;;;;;;9.87;63.04;100737.44;4971766;28;20042;-88
2021/01/12 08:55:40;;;;;;;5.28;2.97;;;;;;;9.60;63.90;100734.41;4971965;28;20039;-89
2021/01/12 08:58:08;;;;;;;8.77;5.35;;;;;;;9.49;64.21;100729.50;4955233;28;20033;-87
2021/01/12 09:00:36;;;;;;;10.45;3.88;;;;;;;9.58;64.02;100747.34;4955751;28;20030;-90
2021/01/12 09:03:03;;;;;;;6.07;5.10;;;;;;;9.80;63.23;100739.22;4968472;28;20038;-88
2021/01/12 09:05:31;;;;;;;9.93;6.22;;;;;;;10.00;62.84;100764.69;4956862;28;20596;-91
2021/01/12 09:08:02;;;;;;;5.47;3.58;;;;;;;9.86;63.48;100765.63;4972787;28;20666;-90
2021/01/12 09:10:28;;;;;;;16.38;5.32;;;;;;;9.35;64.53;100780.09;4993845;28;20030;-88
2021/01/12 09:12:56;;;;;;;10.38;4.95;;;;;;;9.45;63.43;100753.50;4969464;28;20021;-90
2021/01/12 09:15:33;;;;;;;7.75;5.30;;;;;;;9.72;62.74;100766.53;4976502;28;20034;-89
2021/01/12 09:18:04;;;;;;;16.63;7.22;;;;;;;9.41;62.62;100770.34;4973832;28;20089;-88
2021/01/12 09:20:29;;;;;;;15.95;5.55;;;;;;;9.50;62.02;100774.63;4970946;28;20047;-85
2021/01/12 09:23:06;;;;;;;8.52;7.32;;;;;;;10.05;61.51;100785.84;4956444;28;20062;-89
2021/01/12 09:25:33;;;;;;;14.23;4.47;;;;;;;10.07;61.22;100793.81;4975941;28;20042;-89
2021/01/12 09:28:14;;;;;;;7.00;5.22;;;;;;;10.04;60.88;100797.78;4942908;28;20047;-86
2021/01/12 09:30:41;;;;;;;7.85;6.50;;;;;;;10.12;60.15;100794.09;4967319;28;20120;-87
2021/01/12 09:33:06;;;;;;;12.05;5.30;;;;;;;10.28;60.05;100809.28;4969029;28;20031;-88
2021/01/12 09:35:32;;;;;;;10.45;4.82;;;;;;;9.79;60.29;100817.16;4968550;28;20035;-87
2021/01/12 09:38:02;;;;;;;12.43;8.63;;;;;;;9.75;59.25;100807.69;4974187;28;20038;-88
2021/01/12 09:40:28;;;;;;;11.68;7.88;;;;;;;9.35;58.12;100803.69;4956007;28;20513;-88
2021/01/12 09:42:54;;;;;;;13.00;6.55;;;;;;;9.47;57.09;100805.72;4955069;28;20037;-91
2021/01/12 09:45:20;;;;;;;14.90;6.13;;;;;;;9.47;56.67;100829.31;4971627;28;20031;-89
2021/01/12 09:47:46;;;;;;;11.10;6.30;;;;;;;9.65;55.99;100818.88;4952995;28;20031;-90
2021/01/12 09:50:12;;;;;;;12.02;5.80;;;;;;;9.58;57.09;100823.38;4968540;28;20026;-89
2021/01/12 09:52:38;;;;;;;13.98;10.57;;;;;;;9.43;55.50;100828.81;4964656;28;20445;-86
2021/01/12 09:55:04;;;;;;;13.93;5.40;;;;;;;9.64;55.30;100849.78;4970679;28;20081;-86
2021/01/12 09:57:29;;;;;;;15.45;8.25;;;;;;;9.65;54.65;100845.16;4950772;28;20046;-90
2021/01/12 09:59:55;;;;;;;18.95;8.25;;;;;;;10.32;53.02;100849.47;4959784;28;20398;-91
2021/01/12 10:02:20;;;;;;;15.32;6.75;;;;;;;11.54;48.99;100862.88;4956328;28;20161;-91
2021/01/12 10:04:46;;;;;;;17.05;7.38;;;;;;;12.28;46.50;100853.09;4966705;28;20037;-89
2021/01/12 10:07:11;;;;;;;14.88;4.95;;;;;;;13.20;43.91;100865.03;4963876;28;20094;-90
2021/01/12 10:09:37;;;;;;;8.30;5.32;;;;;;;13.60;42.14;100864.13;4951277;28;20046;-87
2021/01/12 10:12:04;;;;;;;14.00;3.53;;;;;;;13.69;41.36;100871.00;4972161;28;20053;-86
2021/01/12 10:14:29;;;;;;;13.45;5.18;;;;;;;13.83;40.72;100868.25;4965740;28;20039;-86
2021/01/12 10:16:55;;;;;;;9.70;5.05;;;;;;;14.02;40.82;100867.28;4965930;28;20028;-85
2021/01/12 10:19:20;;;;;;;9.23;5.78;;;;;;;14.35;41.15;100876.34;4966336;28;20045;-87
2021/01/12 10:21:48;;;;;;;15.93;4.18;;;;;;;14.93;39.66;100883.50;4937927;28;20034;-85
2021/01/12 10:24:14;;;;;;;10.93;3.22;;;;;;;15.28;38.96;100893.94;4952110;28;20038;-89
2021/01/12 10:26:40;;;;;;;10.05;2.97;;;;;;;14.82;39.56;100887.81;4966499;28;20136;-87
2021/01/12 10:29:05;;;;;;;14.23;5.88;;;;;;;14.18;40.00;100906.97;4940283;28;20062;-88
2021/01/12 10:31:31;;;;;;;14.55;4.18;;;;;;;13.74;41.21;100897.69;4966470;28;20049;-88
2021/01/12 10:33:56;;;;;;;14.38;6.03;;;;;;;13.73;41.22;100912.41;4956150;28;20061;-86
2021/01/12 10:36:22;;;;;;;7.32;4.45;;;;;;;13.21;41.89;100902.22;4972725;28;20402;-87
2021/01/12 10:38:48;;;;;;;18.25;6.43;;;;;;;12.71;42.67;100915.47;4973685;28;20033;-88
2021/01/12 10:41:13;;;;;;;8.68;5.05;;;;;;;12.71;44.33;100931.84;4975825;28;20065;-88
2021/01/12 10:43:41;;;;;;;8.98;3.15;;;;;;;12.44;43.71;100911.88;4975414;28;20489;-86
2021/01/12 10:46:07;;;;;;;16.55;3.95;;;;;;;12.39;43.52;100917.94;4972941;28;20387;-87
2021/01/12 10:48:32;;;;;;;10.18;5.10;;;;;;;12.47;44.25;100914.19;4974286;28;21037;-89
2021/01/12 10:50:57;;;;;;;9.52;3.58;;;;;;;12.42;42.99;100900.31;4956139;28;20160;-87
2021/01/12 10:53:23;;;;;;;6.75;3.15;;;;;;;12.38;45.08;100920.88;4958047;28;20042;-87
2021/01/12 10:55:50;;;;;;;7.13;2.83;;;;;;;11.99;45.28;100917.84;4958613;28;20042;-86
2021/01/12 10:58:16;;;;;;;15.30;6.57;;;;;;;11.92;43.73;100916.94;4974730;28;20030;-91
2021/01/12 11:00:41;;;;;;;7.60;4.00;;;;;;;11.82;44.36;100929.03;4976096;28;20042;-87
2021/01/12 11:03:07;;;;;;;10.30;3.35;;;;;;;11.86;44.63;100929.47;4958146;28;20470;-83
2021/01/12 11:05:36;;;;;;;8.32;3.72;;;;;;;11.67;44.21;100933.78;4973607;28;20050;-88
2021/01/12 11:08:02;;;;;;;16.42;3.83;;;;;;;11.55;43.80;100921.78;4974920;28;20048;-87
2021/01/12 11:10:29;;;;;;;8.65;2.97;;;;;;;11.49;44.34;100922.59;4974311;28;20058;-86
2021/01/12 11:13:00;;;;;;;8.48;5.60;;;;;;;11.17;45.29;100938.47;4973592;28;20057;-85
2021/01/12 11:15:29;;;;;;;5.85;3.35;;;;;;;10.95;45.78;100924.09;4958551;28;20054;-85
2021/01/12 11:17:55;;;;;;;8.38;5.13;;;;;;;10.92;44.89;100949.81;4975081;28;20073;-86
2021/01/12 11:20:20;;;;;;;9.48;3.00;;;;;;;11.23;45.12;100940.41;4940103;28;20042;-88